Latest Weather Observations for Mount Hotham

IDV60801

Issued at 3:34 am EST Sunday 30 April 2017 (issued every 30 minutes, with the page automatically refreshed every 10 minutes)

About weather observations | Map of weather stations | Latest weather observations for VIC | Other Formats
Station Details ID: 083085 Name: MOUNT HOTHAM Lat: -36.98 Lon: 147.13 Height: 1849.0 m
Data from the previous 72 hours. | See also: Recent months at Mount Hotham
Date/Time
EST
Temp
°C
App
Temp
°C
Dew
Point
°C
Rel
Hum
%
Delta-T
°C
Wind Press
QNH
hPa
Press
MSL
hPa
Rain since
9am
mm
Dir  Spd
km/h
Gust
km/h
Spd
kts
Gust
kts
30/03:30am 8.1 - - - - SSW 17 20 9 11 - - 0.0
30/03:00am 7.8 - - - - SSW 17 20 9 11 - - 0.0
30/02:30am 8.5 - - - - SSW 19 24 10 13 - - 0.0
30/02:00am 8.8 - - - - S 20 26 11 14 - - 0.0
30/01:30am 7.8 - - - - S 20 28 11 15 - - 0.0
30/01:00am 7.8 - - - - S 20 32 11 17 - - 0.0
30/12:30am 7.1 - - - - S 24 28 13 15 - - 0.0
30/12:00am 6.9 - - - - S 26 30 14 16 - - 0.0
 
Date/Time
EST
Temp
°C
App
Temp
°C
Dew
Point
°C
Rel
Hum
%
Delta-T
°C
Wind Press
QNH
hPa
Press
MSL
hPa
Rain since
9am
mm
Dir  Spd
km/h
Gust
km/h
Spd
kts
Gust
kts
29/11:30pm 5.0 - - - - S 28 32 15 17 - - 0.0
29/11:00pm 4.8 - - - - S 26 30 14 16 - - 0.0
29/10:30pm 4.8 - - - - S 26 33 14 18 - - 0.0
29/10:00pm 3.6 - - - - SSE 24 35 13 19 - - 0.0
29/09:30pm 3.3 - - - - SSE 22 26 12 14 - - 0.0
29/09:00pm 3.5 - - - - SSE 22 24 12 13 - - 0.0
29/08:30pm 3.9 - - - - SSE 20 26 11 14 - - 0.0
29/08:00pm 3.6 - - - - S 15 17 8 9 - - 0.0
29/07:30pm 4.1 - - - - S 13 17 7 9 - - 0.0
29/07:00pm 3.7 - - - - S 17 20 9 11 - - 0.0
29/06:30pm 3.7 - - - - SSW 17 20 9 11 - - 0.0
29/06:00pm 4.6 - - - - SSW 17 17 9 9 - - 0.0
29/05:30pm 5.1 - - - - SSW 13 17 7 9 - - 0.0
29/05:00pm 5.3 - - - - SW 13 17 7 9 - - 0.0
29/04:30pm 5.9 - - - - SSW 9 15 5 8 - - 0.0
29/04:00pm 6.2 - - - - SW 11 17 6 9 - - 0.0
29/03:30pm 6.4 - - - - SW 9 13 5 7 - - 0.0
29/03:00pm 6.9 - - - - SW 13 20 7 11 - - 0.0
29/02:30pm 7.0 - - - - SW 11 19 6 10 - - 0.0
29/02:00pm 6.6 - - - - SW 11 17 6 9 - - 0.0
29/01:30pm 7.4 - - - - SW 15 20 8 11 - - 0.0
29/01:00pm 6.7 - - - - SW 15 24 8 13 - - 0.0
29/12:30pm 7.3 - - - - SW 17 24 9 13 - - 0.0
29/12:00pm 6.9 - - - - SW 20 28 11 15 - - 0.0
29/11:30am 6.9 - - - - SSW 24 35 13 19 - - 0.0
29/11:00am 6.7 - - - - S 28 41 15 22 - - 0.0
29/10:30am 6.6 - - - - SSW 30 39 16 21 - - 0.0
29/10:00am 6.0 - - - - SSW 35 44 19 24 - - 0.0
29/09:30am 4.4 - - - - S 32 41 17 22 - - 0.0
29/09:00am 3.8 - - - - S 28 33 15 18 - - 3.0
29/08:30am 3.4 - - - - SSW 28 43 15 23 - - 3.0
29/08:00am 3.2 - - - - SSW 28 41 15 22 - - 3.0
29/07:30am 3.0 - - - - SSW 33 43 18 23 - - 3.0
29/07:00am 2.8 - - - - S 28 37 15 20 - - 3.0
29/06:30am 3.6 - - - - SW 35 46 19 25 - - 3.0
29/06:00am 5.7 - - - - SSW 43 56 23 30 - - 3.0
29/05:41am 5.7 - - - - SSW 43 61 23 33 - - 3.0
29/05:30am 5.0 - - - - SSW 41 54 22 29 - - 3.0
29/05:00am 3.2 - - - - SW 37 44 20 24 - - 3.0
29/04:30am 2.3 - - - - SW 22 33 12 18 - - 3.0
29/04:00am 2.4 - - - - WSW 19 30 10 16 - - 3.0
29/03:30am 3.4 - - - - W 28 39 15 21 - - 3.0
29/03:00am 3.3 - - - - W 24 35 13 19 - - 3.0
29/02:40am 4.5 - - - - W 32 43 17 23 - - 3.0
29/02:30am 2.0 - - - - WNW 19 35 10 19 - - 2.8
29/02:00am 2.0 - - - - W 20 32 11 17 - - 2.8
29/01:30am 1.5 - - - - W 11 15 6 8 - - 2.8
29/01:00am 3.3 - - - - W 13 19 7 10 - - 2.8
29/12:30am 3.6 - - - - W 13 19 7 10 - - 2.8
29/12:00am 5.7 - - - - SSW 17 20 9 11 - - 2.8
 
Date/Time
EST
Temp
°C
App
Temp
°C
Dew
Point
°C
Rel
Hum
%
Delta-T
°C
Wind Press
QNH
hPa
Press
MSL
hPa
Rain since
9am
mm
Dir  Spd
km/h
Gust
km/h
Spd
kts
Gust
kts
28/11:30pm 4.8 - - - - SW 17 20 9 11 - - 2.8
28/11:00pm 5.1 - - - - SW 17 24 9 13 - - 2.8
28/10:30pm 3.9 - - - - SW 22 28 12 15 - - 2.8
28/10:00pm 5.7 - - - - SW 22 28 12 15 - - 2.8
28/09:30pm 6.2 - - - - WSW 15 26 8 14 - - 2.8
28/09:00pm 6.4 - - - - SW 19 24 10 13 - - 2.8
28/08:30pm 2.6 - - - - E 9 15 5 8 - - 2.8
28/08:00pm 5.6 - - - - SW 17 20 9 11 - - 2.8
28/07:30pm 6.0 - - - - WSW 17 24 9 13 - - 2.8
28/07:00pm 3.3 - - - - W 13 17 7 9 - - 2.8
28/06:30pm 6.0 - - - - SW 15 19 8 10 - - 2.8
28/06:00pm 6.6 - - - - SW 13 19 7 10 - - 2.8
28/05:30pm 5.6 - - - - SW 13 22 7 12 - - 2.8
28/05:00pm 3.5 - - - - WNW 9 13 5 7 - - 2.8
28/04:30pm 6.7 - - - - SW 13 19 7 10 - - 2.8
28/04:00pm 6.5 - - - - WSW 15 22 8 12 - - 2.8
28/03:30pm 5.6 - - - - WNW 9 17 5 9 - - 2.8
28/03:00pm 6.8 - - - - SW 11 20 6 11 - - 2.8
28/02:30pm 7.1 - - - - SW 6 11 3 6 - - 2.8
28/02:00pm 6.7 - - - - SW 9 13 5 7 - - 2.8
28/01:30pm 5.7 - - - - SW 13 17 7 9 - - 2.8
28/01:00pm 4.4 - - - - SSW 19 20 10 11 - - 2.8
28/12:30pm 3.5 - - - - SSW 15 19 8 10 - - 2.8
28/12:00pm 3.5 - - - - SSW 17 22 9 12 - - 2.8
28/11:30am 3.9 - - - - S 15 24 8 13 - - 2.2
28/11:00am 3.6 - - - - S 17 22 9 12 - - 1.6
28/10:30am 5.1 - - - - S 20 26 11 14 - - 0.8
28/10:00am 3.5 - - - - S 19 24 10 13 - - 0.2
28/09:30am 2.0 - - - - S 22 28 12 15 - - 0.0
28/09:00am -0.1 - - - - S 24 30 13 16 - - 0.0
28/08:30am -0.1 - - - - S 15 19 8 10 - - 0.0
28/08:00am -0.4 - - - - S 13 17 7 9 - - 0.0
28/07:30am -0.1 - - - - S 11 15 6 8 - - 0.0
28/07:00am -0.4 - - - - S 17 20 9 11 - - 0.0
28/06:30am -0.5 - - - - S 17 19 9 10 - - 0.0
28/06:00am -0.7 - - - - S 15 17 8 9 - - 0.0
28/05:30am -0.3 - - - - S 15 19 8 10 - - 0.0
28/05:00am -0.6 - - - - S 15 17 8 9 - - 0.0
28/04:30am -0.8 - - - - S 17 19 9 10 - - 0.0
28/04:00am -1.0 - - - - S 17 19 9 10 - - 0.0
28/03:30am -1.2 - - - - S 19 20 10 11 - - 0.0
28/03:00am -1.3 - - - - S 17 20 9 11 - - 0.0
28/02:30am -1.3 - - - - S 20 24 11 13 - - 0.0
28/02:00am -1.5 - - - - S 22 24 12 13 - - 0.0
28/01:30am -1.6 - - - - S 22 26 12 14 - - 0.0
28/01:00am -1.8 - - - - S 24 28 13 15 - - 0.0
28/12:30am -2.0 - - - - S 24 28 13 15 - - 0.0
28/12:00am -2.1 - - - - S 24 26 13 14 - - 0.0
 
Date/Time
EST
Temp
°C
App
Temp
°C
Dew
Point
°C
Rel
Hum
%
Delta-T
°C
Wind Press
QNH
hPa
Press
MSL
hPa
Rain since
9am
mm
Dir  Spd
km/h
Gust
km/h
Spd
kts
Gust
kts
27/11:30pm -2.2 - - - - S 24 30 13 16 - - 0.0
27/11:00pm -2.0 - - - - S 26 30 14 16 - - 0.0
27/10:30pm -2.1 - - - - S 28 32 15 17 - - 0.0
27/10:00pm -2.1 - - - - S 28 33 15 18 - - 0.0
27/09:30pm -2.2 - - - - S 32 33 17 18 - - 0.0
27/09:00pm -2.3 - - - - S 32 37 17 20 - - 0.0
27/08:30pm -2.3 - - - - S 28 33 15 18 - - 0.0
27/08:00pm -2.4 - - - - S 33 39 18 21 - - 0.0
27/07:30pm -2.2 - - - - S 32 35 17 19 - - 0.0
27/07:00pm -2.2 - - - - S 20 24 11 13 - - 0.0
27/06:30pm -2.2 - - - - S 28 30 15 16 - - 0.0
27/06:00pm -2.4 - - - - S 26 28 14 15 - - 0.0
27/05:30pm -2.3 - - - - S 22 24 12 13 - - 0.0
27/05:00pm -2.2 - - - - S 24 28 13 15 - - 0.0
27/04:30pm -2.3 - - - - S 24 28 13 15 - - 0.0
27/04:00pm -2.4 - - - - S 24 28 13 15 - - 0.0
27/03:30pm -2.5 - - - - S 28 33 15 18 - - 0.0
27/03:00pm -2.3 - - - - S 20 28 11 15 - - 0.0
27/02:30pm -2.2 - - - - S 20 24 11 13 - - 0.0
27/02:00pm -2.6 - - - - S 22 26 12 14 - - 0.0
27/01:30pm -2.4 - - - - S 20 26 11 14 - - 0.0
27/01:00pm -2.5 - - - - S 24 28 13 15 - - 0.0
27/12:30pm -2.4 - - - - S 22 26 12 14 - - 0.0
27/12:00pm -2.7 - - - - S 26 30 14 16 - - 0.0
27/11:30am -3.1 - - - - S 30 33 16 18 - - 0.0
27/11:00am -3.3 - - - - S 33 37 18 20 - - 0.0
27/10:30am -3.1 - - - - S 28 32 15 17 - - 0.0
27/10:00am -3.0 - - - - S 30 35 16 19 - - 0.0
27/09:30am -2.9 - - - - S 35 39 19 21 - - 0.0
27/09:00am -3.0 - - - - S 39 46 21 25 - - 4.6
27/08:30am -3.0 - - - - S 39 44 21 24 - - 4.6
27/08:00am -3.2 - - - - S 39 48 21 26 - - 4.6
27/07:30am -3.4 - - - - S 39 46 21 25 - - 4.6
27/07:00am -3.5 - - - - S 41 48 22 26 - - 4.6
27/06:30am -3.3 - - - - S 39 41 21 22 - - 4.6
27/06:00am -3.4 - - - - S 46 52 25 28 - - 4.6
27/05:30am -3.6 - - - - S 43 48 23 26 - - 4.6
27/05:00am -3.8 - - - - S 46 50 25 27 - - 4.6
27/04:30am -3.9 - - - - S 48 56 26 30 - - 4.6
27/04:00am -4.1 - - - - S 46 63 25 34 - - 4.6

Other Formats:

Comma delimited format used in spreadsheet applications
http://www.bom.gov.au/fwo/IDV60801/IDV60801.94906.axf

JavaScript Object Notation format (JSON) in row-major order
http://www.bom.gov.au/fwo/IDV60801/IDV60801.94906.json